createdAt,value
2023-01-15T00:02:04.924Z,6.92
2023-01-15T00:05:13.238Z,6.94
2023-01-15T00:08:21.842Z,6.88
2023-01-15T00:11:30.328Z,6.96
2023-01-15T00:14:38.617Z,6.74
2023-01-15T00:17:48.245Z,6.75
2023-01-15T00:21:01.347Z,6.88
2023-01-15T00:24:28.199Z,6.94
2023-01-15T00:31:07.378Z,6.85
2023-01-15T00:34:18.995Z,6.76
2023-01-15T00:37:27.761Z,6.80
2023-01-15T00:40:36.083Z,6.81
2023-01-15T00:43:44.383Z,6.81
2023-01-15T00:46:54.604Z,6.78
2023-01-15T00:50:04.538Z,6.76
2023-01-15T00:53:13.063Z,6.74
2023-01-15T00:56:21.313Z,6.66
2023-01-15T00:59:29.789Z,6.72
2023-01-15T01:02:41.226Z,6.72
2023-01-15T01:05:51.416Z,6.79
2023-01-15T01:08:59.579Z,6.72
2023-01-15T01:12:10.303Z,6.77
2023-01-15T01:15:19.279Z,6.72
2023-01-15T01:18:27.686Z,6.81
2023-01-15T01:21:39.567Z,6.76
2023-01-15T01:24:47.778Z,6.75
2023-01-15T01:27:56.032Z,6.83
2023-01-15T01:31:06.630Z,6.84
2023-01-15T01:34:16.278Z,6.85
2023-01-15T01:37:25.911Z,6.91
2023-01-15T01:40:36.313Z,6.88
2023-01-15T01:43:59.585Z,6.89
2023-01-15T01:47:12.524Z,6.83
2023-01-15T01:50:23.103Z,6.85
2023-01-15T01:53:34.104Z,6.85
2023-01-15T01:56:44.475Z,6.87
2023-01-15T01:59:53.916Z,6.86
2023-01-15T02:03:06.682Z,6.92
2023-01-15T02:06:16.492Z,6.90
2023-01-15T02:09:27.197Z,6.97
2023-01-15T02:12:41.137Z,6.86
2023-01-15T02:15:58.449Z,6.86
2023-01-15T02:19:23.783Z,6.87
2023-01-15T02:22:46.110Z,6.79
2023-01-15T02:26:30.852Z,6.79
2023-01-15T02:29:57.965Z,6.72
2023-01-15T02:33:14.698Z,6.77
2023-01-15T02:36:30.107Z,6.73
2023-01-15T02:39:47.112Z,6.77
2023-01-15T02:42:58.450Z,6.76
2023-01-15T02:46:10.841Z,6.73
2023-01-15T02:49:23.721Z,6.70
2023-01-15T02:52:38.450Z,6.63
2023-01-15T02:55:53.101Z,6.60
2023-01-15T02:59:12.698Z,6.63
2023-01-15T03:02:33.159Z,6.62
2023-01-15T03:05:52.227Z,6.59
2023-01-15T03:09:00.975Z,6.65
2023-01-15T03:12:21.191Z,6.76
2023-01-15T03:16:00.508Z,6.75
2023-01-15T03:19:25.259Z,6.82
2023-01-15T03:22:41.627Z,6.90
2023-01-15T03:25:52.894Z,6.89
2023-01-15T03:29:05.824Z,6.90
2023-01-15T03:32:15.741Z,6.96
2023-01-15T03:35:52.801Z,6.96
2023-01-15T03:39:13.349Z,7.00
2023-01-15T03:43:10.522Z,7.15
2023-01-15T03:46:40.694Z,7.00
2023-01-15T03:50:00.510Z,7.14
2023-01-15T03:53:24.546Z,7.12
2023-01-15T03:56:55.536Z,7.00
2023-01-15T04:00:15.725Z,7.02
2023-01-15T04:03:25.714Z,7.03
2023-01-15T04:06:39.576Z,7.01
2023-01-15T04:09:49.889Z,7.09
2023-01-15T04:12:59.278Z,7.11
2023-01-15T04:16:08.388Z,7.06
2023-01-15T04:19:17.294Z,7.04
2023-01-15T04:22:33.262Z,7.13
2023-01-15T04:25:43.522Z,7.05
2023-01-15T04:28:52.131Z,7.08
2023-01-15T04:32:00.319Z,7.15
2023-01-15T04:35:09.029Z,7.05
2023-01-15T04:38:17.940Z,7.18
2023-01-15T04:41:45.219Z,7.05
2023-01-15T04:44:53.388Z,6.97
2023-01-15T04:48:01.470Z,7.06
2023-01-15T04:51:09.602Z,7.04
2023-01-15T04:54:18.724Z,7.03
2023-01-15T04:57:28.327Z,6.96
2023-01-15T05:00:37.574Z,6.99
2023-01-15T05:03:46.207Z,6.94
2023-01-15T05:06:54.393Z,7.07
2023-01-15T05:10:02.491Z,7.07
2023-01-15T05:13:12.651Z,6.92
2023-01-15T05:16:24.726Z,6.95
2023-01-15T05:19:33.188Z,6.92
2023-01-15T05:22:41.297Z,6.96
2023-01-15T05:25:49.459Z,6.88
2023-01-15T05:29:01.440Z,7.00
2023-01-15T05:32:09.819Z,7.03
2023-01-15T05:35:18.354Z,7.09
2023-01-15T05:38:26.426Z,7.25
2023-01-15T05:41:49.846Z,7.21
2023-01-15T05:44:59.237Z,7.33
2023-01-15T05:48:07.484Z,7.51
2023-01-15T05:51:16.904Z,7.57
2023-01-15T05:54:27.564Z,7.61
2023-01-15T05:57:35.964Z,7.82
2023-01-15T06:00:45.585Z,7.81
2023-01-15T06:03:55.972Z,7.88
2023-01-15T06:07:04.179Z,7.94
2023-01-15T06:10:12.333Z,7.93
2023-01-15T06:13:20.730Z,8.03
2023-01-15T06:16:30.515Z,8.00
2023-01-15T06:19:38.571Z,7.85
2023-01-15T06:22:46.725Z,7.91
2023-01-15T06:25:55.104Z,7.95
2023-01-15T06:29:03.300Z,7.90
2023-01-15T06:32:12.981Z,7.83
2023-01-15T06:35:21.210Z,7.77
2023-01-15T06:38:29.247Z,7.78
2023-01-15T06:41:55.034Z,7.80
2023-01-15T06:45:20.828Z,7.77
2023-01-15T06:48:30.556Z,7.83
2023-01-15T06:51:38.654Z,7.93
2023-01-15T06:54:46.926Z,8.15
2023-01-15T06:57:55.078Z,7.94
2023-01-15T07:01:10.516Z,7.89
2023-01-15T07:04:20.064Z,8.04
2023-01-15T07:07:29.870Z,7.79
2023-01-15T07:10:37.975Z,7.86
2023-01-15T07:13:46.185Z,7.89
2023-01-15T07:16:54.725Z,7.93
2023-01-15T07:20:05.378Z,7.94
2023-01-15T07:23:14.564Z,7.95
2023-01-15T07:26:24.104Z,7.94
2023-01-15T07:29:32.239Z,7.98
2023-01-15T07:32:40.403Z,7.90
2023-01-15T07:35:49.976Z,7.83
2023-01-15T07:38:58.310Z,8.00
2023-01-15T07:42:24.053Z,8.07
2023-01-15T07:45:50.014Z,8.16
2023-01-15T07:49:11.991Z,8.26
2023-01-15T07:52:23.685Z,8.30
2023-01-15T07:55:32.272Z,8.33
2023-01-15T07:58:40.444Z,8.53
2023-01-15T08:01:48.845Z,8.56
2023-01-15T08:04:57.235Z,8.52
2023-01-15T08:08:07.212Z,8.63
2023-01-15T08:11:33.088Z,8.76
2023-01-15T08:14:58.961Z,8.96
2023-01-15T08:18:07.236Z,8.90
2023-01-15T08:21:16.915Z,8.98
2023-01-15T08:24:27.057Z,9.07
2023-01-15T08:27:35.124Z,9.25
2023-01-15T08:30:46.223Z,9.26
2023-01-15T08:33:54.527Z,9.14
2023-01-15T08:37:02.682Z,9.26
2023-01-15T08:40:13.946Z,9.14
2023-01-15T08:43:21.992Z,9.16
2023-01-15T08:46:30.312Z,9.17
2023-01-15T08:49:39.079Z,9.31
2023-01-15T08:52:47.267Z,9.24
2023-01-15T08:55:57.052Z,9.21
2023-01-15T08:59:07.919Z,9.22
2023-01-15T09:02:17.810Z,9.42
2023-01-15T09:05:27.982Z,9.47
2023-01-15T09:08:36.396Z,9.69
2023-01-15T09:11:46.766Z,9.80
2023-01-15T09:15:02.708Z,9.97
2023-01-15T09:18:12.696Z,10.08
2023-01-15T09:21:21.287Z,10.05
2023-01-15T09:24:29.352Z,10.04
2023-01-15T09:27:39.077Z,10.10
2023-01-15T09:30:47.258Z,10.19
2023-01-15T09:33:56.290Z,10.41
2023-01-15T09:37:04.899Z,10.52
2023-01-15T09:40:42.172Z,10.66
2023-01-15T09:44:06.373Z,10.86
2023-01-15T09:47:22.106Z,11.02
2023-01-15T09:50:49.565Z,11.12
2023-01-15T09:54:25.162Z,11.41
2023-01-15T09:57:35.390Z,11.61
2023-01-15T10:00:49.493Z,11.79
2023-01-15T10:04:05.712Z,11.81
2023-01-15T10:07:24.114Z,11.82
2023-01-15T10:10:42.124Z,11.95
2023-01-15T10:13:57.401Z,12.10
2023-01-15T10:17:20.088Z,12.16
2023-01-15T10:20:54.185Z,12.12
2023-01-15T10:24:13.518Z,12.16
2023-01-15T10:27:26.258Z,12.20
2023-01-15T10:30:42.689Z,11.04
2023-01-15T10:34:25.081Z,8.38
2023-01-15T10:37:41.934Z,7.54
2023-01-15T10:41:14.713Z,7.05
2023-01-15T10:44:34.326Z,6.90
2023-01-15T10:47:49.728Z,6.55
2023-01-15T10:51:07.745Z,6.47
2023-01-15T10:54:25.595Z,6.29
2023-01-15T10:57:56.485Z,6.26
2023-01-15T11:01:16.017Z,6.32
2023-01-15T11:04:26.231Z,6.26
2023-01-15T11:08:03.231Z,6.39
2023-01-15T11:11:22.076Z,6.25
2023-01-15T11:14:57.301Z,6.15
2023-01-15T11:18:32.038Z,5.99
2023-01-15T11:21:44.063Z,5.91
2023-01-15T11:24:57.746Z,5.96
2023-01-15T11:28:09.890Z,5.72
2023-01-15T11:31:18.685Z,5.69
2023-01-15T11:34:26.961Z,5.58
2023-01-15T11:37:35.162Z,5.70
2023-01-15T11:40:55.006Z,5.64
2023-01-15T11:44:20.973Z,5.56
2023-01-15T11:47:46.665Z,5.51
2023-01-15T11:51:02.392Z,5.44
2023-01-15T11:54:15.569Z,5.31
2023-01-15T11:57:33.892Z,5.18
2023-01-15T12:00:45.127Z,5.17
2023-01-15T12:03:54.440Z,5.05
2023-01-15T12:07:06.372Z,5.04
2023-01-15T12:10:42.884Z,4.90
2023-01-15T12:14:09.431Z,4.90
2023-01-15T12:17:43.229Z,4.85
2023-01-15T12:21:03.707Z,4.94
2023-01-15T12:24:42.685Z,4.95
2023-01-15T12:27:59.896Z,5.03
2023-01-15T12:31:17.006Z,5.03
2023-01-15T12:34:36.363Z,4.87
2023-01-15T12:37:51.923Z,4.76
2023-01-15T12:41:12.078Z,4.79
2023-01-15T12:44:45.721Z,4.89
2023-01-15T12:48:06.830Z,4.95
2023-01-15T12:51:24.479Z,4.95
2023-01-15T12:54:42.648Z,5.04
2023-01-15T12:57:57.711Z,5.01
2023-01-15T13:01:17.550Z,5.06
2023-01-15T13:04:35.431Z,5.17
2023-01-15T13:07:54.676Z,5.18
2023-01-15T13:11:03.179Z,5.16
2023-01-15T13:14:17.705Z,5.14
2023-01-15T13:17:49.029Z,5.19
2023-01-15T13:21:04.531Z,5.15
2023-01-15T13:24:50.003Z,5.07
2023-01-15T13:28:29.299Z,5.05
2023-01-15T13:31:59.793Z,4.95
2023-01-15T13:35:15.671Z,4.83
2023-01-15T13:38:31.573Z,4.68
2023-01-15T13:41:58.159Z,4.59
2023-01-15T13:45:33.457Z,4.58
2023-01-15T13:48:46.574Z,4.65
2023-01-15T13:51:58.775Z,4.80
2023-01-15T13:55:30.677Z,4.75
2023-01-15T13:58:53.043Z,4.71
2023-01-15T14:02:01.534Z,4.66
2023-01-15T14:05:30.697Z,4.54
2023-01-15T14:08:42.936Z,4.51
2023-01-15T14:12:14.373Z,4.54
2023-01-15T14:15:38.279Z,4.39
2023-01-15T14:19:23.664Z,4.40
2023-01-15T14:23:05.117Z,4.32
2023-01-15T14:26:26.162Z,4.28
2023-01-15T14:30:07.682Z,4.31
2023-01-15T14:33:30.502Z,4.30
2023-01-15T14:36:52.729Z,4.28
2023-01-15T14:40:04.429Z,4.27
2023-01-15T14:43:21.353Z,4.32
2023-01-15T14:46:40.661Z,4.29
2023-01-15T14:50:02.703Z,4.26
2023-01-15T14:53:38.395Z,4.18
2023-01-15T14:56:54.212Z,4.15
2023-01-15T15:00:05.519Z,4.21
2023-01-15T15:03:23.342Z,4.06
2023-01-15T15:06:32.486Z,4.08
2023-01-15T15:09:48.027Z,4.06
2023-01-15T15:13:07.995Z,4.03
2023-01-15T15:16:29.011Z,4.03
2023-01-15T15:19:49.146Z,4.01
2023-01-15T15:23:05.833Z,4.03
2023-01-15T15:26:28.271Z,3.99
2023-01-15T15:29:36.682Z,3.99
2023-01-15T15:32:46.366Z,4.02
2023-01-15T15:36:00.967Z,3.77
2023-01-15T15:39:21.289Z,4.00
2023-01-15T15:42:52.713Z,3.91
2023-01-15T15:46:18.483Z,3.84
2023-01-15T15:49:26.895Z,3.78
2023-01-15T15:52:36.654Z,3.77
2023-01-15T15:55:47.852Z,3.82
2023-01-15T15:58:58.320Z,3.85
2023-01-15T16:02:19.361Z,3.84
2023-01-15T16:05:31.687Z,3.81
2023-01-15T16:08:41.367Z,3.71
2023-01-15T16:11:52.497Z,3.71
2023-01-15T16:15:02.227Z,3.59
2023-01-15T16:18:24.475Z,3.57
2023-01-15T16:21:36.341Z,3.51
2023-01-15T16:24:56.660Z,3.50
2023-01-15T16:28:06.394Z,3.54
2023-01-15T16:31:19.729Z,3.44
2023-01-15T16:34:31.844Z,3.41
2023-01-15T16:37:40.901Z,3.38
2023-01-15T16:40:50.785Z,3.39
2023-01-15T16:44:03.753Z,3.32
2023-01-15T16:47:24.973Z,3.32
2023-01-15T16:50:35.185Z,3.28
2023-01-15T16:53:43.524Z,3.12
2023-01-15T16:56:55.928Z,3.10
2023-01-15T17:00:08.811Z,3.06
2023-01-15T17:03:21.527Z,3.02
2023-01-15T17:06:30.834Z,2.94
2023-01-15T17:09:44.984Z,2.86
2023-01-15T17:12:57.033Z,2.86
2023-01-15T17:16:18.618Z,2.91
2023-01-15T17:19:27.088Z,2.84
2023-01-15T17:22:35.900Z,2.85
2023-01-15T17:25:44.280Z,2.84
2023-01-15T17:28:56.902Z,2.85
2023-01-15T17:32:13.768Z,2.77
2023-01-15T17:35:29.392Z,2.81
2023-01-15T17:38:37.694Z,2.86
2023-01-15T17:41:45.957Z,2.81
2023-01-15T17:44:55.666Z,2.96
2023-01-15T17:48:08.710Z,2.87
2023-01-15T17:51:18.336Z,2.73
2023-01-15T17:54:40.574Z,2.82
2023-01-15T17:58:06.494Z,2.71
2023-01-15T18:01:39.765Z,2.77
2023-01-15T18:05:10.490Z,2.75
2023-01-15T18:08:21.747Z,2.73
2023-01-15T18:11:30.378Z,2.66
2023-01-15T18:14:38.661Z,2.65
2023-01-15T18:17:48.525Z,2.65
2023-01-15T18:20:56.917Z,2.53
2023-01-15T18:24:05.523Z,2.61
2023-01-15T18:27:13.673Z,2.69
2023-01-15T18:30:22.203Z,2.66
2023-01-15T18:33:32.103Z,2.66
2023-01-15T18:36:41.186Z,2.62
2023-01-15T18:39:50.351Z,2.58
2023-01-15T18:43:16.950Z,2.54
2023-01-15T18:46:43.231Z,2.48
2023-01-15T18:49:55.133Z,2.42
2023-01-15T18:53:03.289Z,2.46
2023-01-15T18:56:11.555Z,2.44
2023-01-15T18:59:19.966Z,2.49
2023-01-15T19:02:28.404Z,2.46
2023-01-15T19:05:38.071Z,2.39
2023-01-15T19:08:46.303Z,2.43
2023-01-15T19:11:54.960Z,2.39
2023-01-15T19:15:21.047Z,2.48
2023-01-15T19:18:52.821Z,2.46
2023-01-15T19:22:19.687Z,2.30
2023-01-15T19:25:31.422Z,2.24
2023-01-15T19:28:39.651Z,2.26
2023-01-15T19:31:48.062Z,2.12
2023-01-15T19:34:56.389Z,2.14
2023-01-15T19:38:08.477Z,2.13
2023-01-15T19:41:36.804Z,2.23
2023-01-15T19:45:03.134Z,2.30
2023-01-15T19:48:32.443Z,2.17
2023-01-15T19:51:58.632Z,2.05
2023-01-15T19:55:12.018Z,2.07
2023-01-15T19:58:20.826Z,1.96
2023-01-15T20:01:29.258Z,1.85
2023-01-15T20:04:37.618Z,1.77
2023-01-15T20:07:45.887Z,1.78
2023-01-15T20:10:55.676Z,1.61
2023-01-15T20:14:02.891Z,2.00
2023-01-15T20:17:13.776Z,1.80
2023-01-15T20:20:22.526Z,1.83
2023-01-15T20:23:36.038Z,1.89
2023-01-15T20:26:45.793Z,1.84
2023-01-15T20:29:54.971Z,1.72
2023-01-15T20:33:03.233Z,1.78
2023-01-15T20:36:15.820Z,1.62
2023-01-15T20:39:24.536Z,1.65
2023-01-15T20:42:52.589Z,1.63
2023-01-15T20:46:10.845Z,1.41
2023-01-15T20:49:28.895Z,1.44
2023-01-15T20:52:41.656Z,1.33
2023-01-15T20:55:57.425Z,1.27
2023-01-15T20:59:10.526Z,1.15
2023-01-15T21:02:19.697Z,1.01
2023-01-15T21:05:28.989Z,1.11
2023-01-15T21:08:37.799Z,1.17
2023-01-15T21:11:46.315Z,1.01
2023-01-15T21:14:56.053Z,0.92
2023-01-15T21:18:07.694Z,0.76
2023-01-15T21:21:19.013Z,0.81
2023-01-15T21:24:27.670Z,0.86
2023-01-15T21:27:38.774Z,0.57
2023-01-15T21:30:48.394Z,0.67
2023-01-15T21:33:58.778Z,0.70
2023-01-15T21:37:06.933Z,0.65
2023-01-15T21:40:15.537Z,0.49
2023-01-15T21:43:42.239Z,0.28
2023-01-15T21:46:52.074Z,0.28
2023-01-15T21:50:00.274Z,0.41
2023-01-15T21:53:09.387Z,0.42
2023-01-15T21:56:17.487Z,0.30
2023-01-15T21:59:26.523Z,0.36
2023-01-15T22:02:36.498Z,0.34
2023-01-15T22:05:44.918Z,0.44
2023-01-15T22:08:55.546Z,0.41
2023-01-15T22:12:03.981Z,0.34
2023-01-15T22:15:12.790Z,0.33
2023-01-15T22:18:26.549Z,0.22
2023-01-15T22:21:35.302Z,0.17
2023-01-15T22:24:43.818Z,0.10
2023-01-15T22:27:51.883Z,0.05
2023-01-15T22:30:59.963Z,0.07
2023-01-15T22:34:10.082Z,0.19
2023-01-15T22:37:18.209Z,0.13
2023-01-15T22:40:26.426Z,0.18
2023-01-15T22:43:35.065Z,0.07
2023-01-15T22:46:44.892Z,-0.14
2023-01-15T22:49:54.435Z,0.04
2023-01-15T22:53:02.499Z,0.17
2023-01-15T22:56:10.618Z,-0.04
2023-01-15T22:59:19.396Z,-0.02
2023-01-15T23:02:41.498Z,0.06
2023-01-15T23:05:51.411Z,0.25
2023-01-15T23:09:01.704Z,0.36
2023-01-15T23:12:09.921Z,0.41
2023-01-15T23:15:18.265Z,0.28
2023-01-15T23:18:26.629Z,0.28
2023-01-15T23:21:36.681Z,0.32
2023-01-15T23:24:44.908Z,0.25
2023-01-15T23:27:53.385Z,0.12
2023-01-15T23:31:01.697Z,0.15
2023-01-15T23:34:10.598Z,0.25
2023-01-15T23:37:20.053Z,0.28
2023-01-15T23:40:28.152Z,0.31
2023-01-15T23:43:54.018Z,0.18
2023-01-15T23:47:02.336Z,0.17
2023-01-15T23:50:13.802Z,0.23
2023-01-15T23:53:23.187Z,0.06
2023-01-15T23:56:33.578Z,0.12
2023-01-15T23:59:41.633Z,0.15
